Thursday, February 22, 2018, 12:04 PM EST
Back to Local

KOXC, Oxford, Waterbury-oxford Airport

Location: Oxford, CT, United States Lat: 41.483
Local Time: 12:04 PM EST (17:04 GMT) Lon: -73.133
Time Zone: US/Eastern Elev: 725 ft

Show me the last for .
Show Decoded

2018-02-22 11:51 METAR KOXC 221651Z 04010KT 10SM OVC060 05/M06 A3058 RMK AO2 RAB23E49 PRESFR
                 SLP372 P0000 T00501061 =
2018-02-22 10:51 METAR KOXC 221551Z 03011G16KT 10SM FEW050 OVC065 05/M04 A3061 RMK AO2 RAB34E47
                 SLP379 P0000 T00501044 =
2018-02-22 09:51 METAR KOXC 221451Z 03012KT 10SM OVC065 05/M03 A3059 RMK AO2 RAB1355E27B45E51
                 SLP374 P0000 60000 T00501033 50012 =
2018-02-22 08:51 METAR KOXC 221351Z 02011KT 10SM OVC065 05/M04 A3060 RMK AO2 PRESRR SLP378
                 T00501044 =
2018-02-22 07:51 METAR KOXC 221251Z 03012KT 10SM OVC065 06/M04 A3057 RMK AO2 RAB49E51 SLP370
                 P0000 T00561039 =
2018-02-22 06:51 METAR KOXC 221151Z 02007KT 10SM OVC065 06/02 A3056 RMK AO2 SLP362 60001 70001
                 T00560022 10089 20050 51020 =
2018-02-22 05:51 METAR KOXC 221051Z 02005KT 10SM SCT050 OVC060 05/02 A3055 RMK AO2 RAE09B29E51
                 SLP359 P0000 T00500022 =
2018-02-22 04:51 METAR KOXC 220951Z AUTO 35006KT 10SM -RA OVC055 05/03 A3053 RMK AO2 RAB07 SLP350
                 P0001 T00500028 =
2018-02-22 03:51 METAR KOXC 220851Z AUTO 34012KT 10SM OVC050 06/01 A3050 RMK AO2 RAB16E32 SLP339
                 P0000 60000 T00610006 51016 =
2018-02-22 02:51 METAR KOXC 220751Z AUTO 36015KT 10SM OVC048 07/01 A3048 RMK AO2 SLP335 T00670006
                 =
2018-02-22 01:51 METAR KOXC 220651Z AUTO 35012KT 10SM BKN048 OVC110 08/03 A3047 RMK AO2 SLP331
                 T00780028 TSNO =
2018-02-22 00:51 METAR KOXC 220551Z AUTO 35011KT 10SM OVC044 09/04 A3045 RMK AO2 SLP322 T00890039
                 10183 20089 53026 =
2018-02-21 23:51 METAR KOXC 220451Z AUTO 36014KT 10SM OVC044 11/04 A3043 RMK AO2 SLP316 T01060044
                 402440106 =
2018-02-21 22:51 METAR KOXC 220351Z AUTO 02008KT 10SM OVC044 12/06 A3039 RMK AO2 SLP302 T01220056
                 =
2018-02-21 21:51 METAR KOXC 220251Z AUTO 35010KT 10SM BKN044 OVC050 13/06 A3037 RMK AO2 SLP296
                 T01280061 51034 =
2018-02-21 20:51 METAR KOXC 220151Z 36012KT 10SM OVC042 13/08 A3036 RMK AO2 SLP292 T01330078 =
2018-02-21 19:51 METAR KOXC 220051Z 36013G20KT 10SM FEW046 14/09 A3032 RMK AO2 WSHFT 2341 SLP279
                 T01440089 =
2018-02-21 19:01 METAR KOXC 220001Z 34018G23KT 10SM BKN050 OVC065 17/11 A3028 RMK AO2 WSHFT 2341
                 PRESRR =
2018-02-21 18:51 METAR KOXC 212351Z 35016KT 10SM BKN050 BKN065 OVC080 18/12 A3027 RMK AO2 PRESRR
                 SLP262 T01830117 10244 20183 53028 =
2018-02-21 17:51 METAR KOXC 212251Z 25006KT 10SM CLR 23/13 A3022 RMK AO2 SLP244 T02280133 =
2018-02-21 16:51 METAR KOXC 212151Z 24007KT 10SM CLR 24/14 A3020 RMK AO2 SLP235 T02390139 =
2018-02-21 15:51 METAR KOXC 212051Z 20008KT 10SM CLR 23/14 A3019 RMK AO2 SLP232 T02330144 55004 =
2018-02-21 14:51 METAR KOXC 211951Z 23009G17KT 200V280 10SM CLR 24/14 A3018 RMK AO2 SLP231
                 T02390139 =
2018-02-21 13:51 METAR KOXC 211851Z 25008G14KT 210V280 10SM CLR 23/14 A3019 RMK AO2 SLP232
                 T02330139 =
2018-02-21 12:51 METAR KOXC 211751Z VRB06KT 10SM CLR 21/15 A3020 =

Support USWX by starting your Amazon purchase here.